sensor_id;sensor_type;location;lat;lon;timestamp;temperature;humidity
78779;DHT22;68121;52.404;5.318;2023-07-29T00:00:57;18.90;71.60
78779;DHT22;68121;52.404;5.318;2023-07-29T00:03:23;18.90;71.50
78779;DHT22;68121;52.404;5.318;2023-07-29T00:05:50;18.90;71.50
78779;DHT22;68121;52.404;5.318;2023-07-29T00:08:16;18.90;71.50
78779;DHT22;68121;52.404;5.318;2023-07-29T00:10:42;18.90;71.40
78779;DHT22;68121;52.404;5.318;2023-07-29T00:13:08;18.90;71.40
78779;DHT22;68121;52.404;5.318;2023-07-29T00:15:34;19.00;71.30
78779;DHT22;68121;52.404;5.318;2023-07-29T00:18:00;19.00;71.30
78779;DHT22;68121;52.404;5.318;2023-07-29T00:20:26;19.00;71.20
78779;DHT22;68121;52.404;5.318;2023-07-29T00:22:52;19.00;71.20
78779;DHT22;68121;52.404;5.318;2023-07-29T00:25:21;19.00;71.10
78779;DHT22;68121;52.404;5.318;2023-07-29T00:27:47;18.90;71.10
78779;DHT22;68121;52.404;5.318;2023-07-29T00:30:13;18.90;71.00
78779;DHT22;68121;52.404;5.318;2023-07-29T00:32:39;18.90;71.10
78779;DHT22;68121;52.404;5.318;2023-07-29T00:35:06;18.90;71.10
78779;DHT22;68121;52.404;5.318;2023-07-29T00:37:32;18.90;71.00
78779;DHT22;68121;52.404;5.318;2023-07-29T00:39:58;18.90;71.00
78779;DHT22;68121;52.404;5.318;2023-07-29T00:42:25;18.90;70.90
78779;DHT22;68121;52.404;5.318;2023-07-29T00:44:51;18.90;70.90
78779;DHT22;68121;52.404;5.318;2023-07-29T00:47:18;18.90;70.90
78779;DHT22;68121;52.404;5.318;2023-07-29T00:49:45;18.90;70.80
78779;DHT22;68121;52.404;5.318;2023-07-29T00:52:11;18.90;70.70
78779;DHT22;68121;52.404;5.318;2023-07-29T00:54:42;18.90;70.70
78779;DHT22;68121;52.404;5.318;2023-07-29T00:57:08;18.90;70.60
78779;DHT22;68121;52.404;5.318;2023-07-29T00:59:36;18.90;70.60
78779;DHT22;68121;52.404;5.318;2023-07-29T01:02:02;18.90;70.50
78779;DHT22;68121;52.404;5.318;2023-07-29T01:04:29;18.90;70.50
78779;DHT22;68121;52.404;5.318;2023-07-29T01:07:24;18.90;70.40
78779;DHT22;68121;52.404;5.318;2023-07-29T01:18:04;19.00;70.30
78779;DHT22;68121;52.404;5.318;2023-07-29T01:20:33;19.00;70.20
78779;DHT22;68121;52.404;5.318;2023-07-29T01:22:59;19.00;70.20
78779;DHT22;68121;52.404;5.318;2023-07-29T01:25:26;19.00;70.10
78779;DHT22;68121;52.404;5.318;2023-07-29T01:27:52;19.00;70.00
78779;DHT22;68121;52.404;5.318;2023-07-29T01:30:20;19.00;70.00
78779;DHT22;68121;52.404;5.318;2023-07-29T01:37:57;19.00;69.90
78779;DHT22;68121;52.404;5.318;2023-07-29T01:40:29;19.00;69.90
78779;DHT22;68121;52.404;5.318;2023-07-29T01:42:55;19.00;69.90
78779;DHT22;68121;52.404;5.318;2023-07-29T01:45:24;19.00;69.90
78779;DHT22;68121;52.404;5.318;2023-07-29T01:47:51;19.00;69.90
78779;DHT22;68121;52.404;5.318;2023-07-29T01:50:17;18.90;69.90
78779;DHT22;68121;52.404;5.318;2023-07-29T01:52:44;18.90;69.90
78779;DHT22;68121;52.404;5.318;2023-07-29T01:55:10;18.90;69.90
78779;DHT22;68121;52.404;5.318;2023-07-29T01:57:36;18.90;69.90
78779;DHT22;68121;52.404;5.318;2023-07-29T02:00:02;18.90;69.80
78779;DHT22;68121;52.404;5.318;2023-07-29T02:02:29;18.90;69.90
78779;DHT22;68121;52.404;5.318;2023-07-29T02:04:55;18.90;69.90
78779;DHT22;68121;52.404;5.318;2023-07-29T02:07:21;18.90;69.90
78779;DHT22;68121;52.404;5.318;2023-07-29T02:09:48;18.90;69.90
78779;DHT22;68121;52.404;5.318;2023-07-29T02:12:14;18.80;69.90
78779;DHT22;68121;52.404;5.318;2023-07-29T02:14:40;18.80;69.80
78779;DHT22;68121;52.404;5.318;2023-07-29T02:17:06;18.80;69.80
78779;DHT22;68121;52.404;5.318;2023-07-29T02:19:32;18.80;69.90
78779;DHT22;68121;52.404;5.318;2023-07-29T02:21:58;18.80;69.90
78779;DHT22;68121;52.404;5.318;2023-07-29T02:24:24;18.80;69.90
78779;DHT22;68121;52.404;5.318;2023-07-29T02:26:50;18.80;69.90
78779;DHT22;68121;52.404;5.318;2023-07-29T02:29:16;18.80;70.00
78779;DHT22;68121;52.404;5.318;2023-07-29T02:31:42;18.70;70.00
78779;DHT22;68121;52.404;5.318;2023-07-29T02:34:10;18.80;70.10
78779;DHT22;68121;52.404;5.318;2023-07-29T02:36:36;18.70;70.20
78779;DHT22;68121;52.404;5.318;2023-07-29T02:39:02;18.70;70.30
78779;DHT22;68121;52.404;5.318;2023-07-29T02:41:28;18.60;70.40
78779;DHT22;68121;52.404;5.318;2023-07-29T02:43:54;18.60;70.50
78779;DHT22;68121;52.404;5.318;2023-07-29T02:46:20;18.60;70.50
78779;DHT22;68121;52.404;5.318;2023-07-29T02:48:46;18.60;70.70
78779;DHT22;68121;52.404;5.318;2023-07-29T02:51:12;18.50;70.70
78779;DHT22;68121;52.404;5.318;2023-07-29T02:53:39;18.50;70.80
78779;DHT22;68121;52.404;5.318;2023-07-29T02:56:05;18.50;70.90
78779;DHT22;68121;52.404;5.318;2023-07-29T02:58:32;18.50;70.90
78779;DHT22;68121;52.404;5.318;2023-07-29T03:01:05;18.50;71.00
78779;DHT22;68121;52.404;5.318;2023-07-29T03:03:31;18.50;71.00
78779;DHT22;68121;52.404;5.318;2023-07-29T03:06:03;18.40;71.10
78779;DHT22;68121;52.404;5.318;2023-07-29T03:08:30;18.40;71.20
78779;DHT22;68121;52.404;5.318;2023-07-29T03:10:57;18.40;71.30
78779;DHT22;68121;52.404;5.318;2023-07-29T03:13:23;18.40;71.30
78779;DHT22;68121;52.404;5.318;2023-07-29T03:15:49;18.40;71.40
78779;DHT22;68121;52.404;5.318;2023-07-29T03:18:15;18.40;71.40
78779;DHT22;68121;52.404;5.318;2023-07-29T03:20:41;18.40;71.40
78779;DHT22;68121;52.404;5.318;2023-07-29T03:23:08;18.30;71.50
78779;DHT22;68121;52.404;5.318;2023-07-29T03:25:34;18.30;71.50
78779;DHT22;68121;52.404;5.318;2023-07-29T03:28:00;18.40;71.50
78779;DHT22;68121;52.404;5.318;2023-07-29T03:30:26;18.30;71.50
78779;DHT22;68121;52.404;5.318;2023-07-29T03:32:52;18.30;71.60
78779;DHT22;68121;52.404;5.318;2023-07-29T03:35:18;18.30;71.60
78779;DHT22;68121;52.404;5.318;2023-07-29T03:37:45;18.30;71.60
78779;DHT22;68121;52.404;5.318;2023-07-29T03:40:11;18.30;71.70
78779;DHT22;68121;52.404;5.318;2023-07-29T03:42:37;18.30;71.70
78779;DHT22;68121;52.404;5.318;2023-07-29T03:45:04;18.30;71.70
78779;DHT22;68121;52.404;5.318;2023-07-29T03:47:30;18.30;71.70
78779;DHT22;68121;52.404;5.318;2023-07-29T03:49:56;18.30;71.80
78779;DHT22;68121;52.404;5.318;2023-07-29T03:52:22;18.30;71.80
78779;DHT22;68121;52.404;5.318;2023-07-29T03:54:48;18.30;71.90
78779;DHT22;68121;52.404;5.318;2023-07-29T03:57:14;18.20;71.90
78779;DHT22;68121;52.404;5.318;2023-07-29T03:59:40;18.20;71.90
78779;DHT22;68121;52.404;5.318;2023-07-29T04:02:06;18.20;72.00
78779;DHT22;68121;52.404;5.318;2023-07-29T04:04:32;18.20;72.00
78779;DHT22;68121;52.404;5.318;2023-07-29T04:07:00;18.20;72.00
78779;DHT22;68121;52.404;5.318;2023-07-29T04:09:26;18.10;72.00
78779;DHT22;68121;52.404;5.318;2023-07-29T04:11:52;18.10;72.00
78779;DHT22;68121;52.404;5.318;2023-07-29T04:14:18;18.10;72.00
78779;DHT22;68121;52.404;5.318;2023-07-29T04:16:44;18.10;72.00
78779;DHT22;68121;52.404;5.318;2023-07-29T04:19:11;18.10;72.00
78779;DHT22;68121;52.404;5.318;2023-07-29T04:21:37;18.10;72.00
78779;DHT22;68121;52.404;5.318;2023-07-29T04:24:03;18.10;72.10
78779;DHT22;68121;52.404;5.318;2023-07-29T04:26:29;18.10;72.10
78779;DHT22;68121;52.404;5.318;2023-07-29T04:28:55;18.10;72.10
78779;DHT22;68121;52.404;5.318;2023-07-29T04:31:21;18.00;72.10
78779;DHT22;68121;52.404;5.318;2023-07-29T04:33:47;18.00;72.10
78779;DHT22;68121;52.404;5.318;2023-07-29T04:36:13;18.00;72.10
78779;DHT22;68121;52.404;5.318;2023-07-29T04:38:39;18.00;72.20
78779;DHT22;68121;52.404;5.318;2023-07-29T04:41:05;18.00;72.20
78779;DHT22;68121;52.404;5.318;2023-07-29T04:43:33;18.00;72.20
78779;DHT22;68121;52.404;5.318;2023-07-29T04:45:59;18.00;72.30
78779;DHT22;68121;52.404;5.318;2023-07-29T04:48:25;18.00;72.20
78779;DHT22;68121;52.404;5.318;2023-07-29T04:50:51;18.00;72.20
78779;DHT22;68121;52.404;5.318;2023-07-29T04:53:17;18.00;72.30
78779;DHT22;68121;52.404;5.318;2023-07-29T04:55:43;18.00;72.30
78779;DHT22;68121;52.404;5.318;2023-07-29T04:58:10;18.00;72.30
78779;DHT22;68121;52.404;5.318;2023-07-29T05:00:36;18.00;72.30
78779;DHT22;68121;52.404;5.318;2023-07-29T05:03:02;18.00;72.40
78779;DHT22;68121;52.404;5.318;2023-07-29T05:05:28;18.00;72.30
78779;DHT22;68121;52.404;5.318;2023-07-29T05:07:54;18.00;72.30
78779;DHT22;68121;52.404;5.318;2023-07-29T05:10:20;18.00;72.30
78779;DHT22;68121;52.404;5.318;2023-07-29T05:12:46;17.90;72.40
78779;DHT22;68121;52.404;5.318;2023-07-29T05:15:12;18.00;72.40
78779;DHT22;68121;52.404;5.318;2023-07-29T05:17:38;18.00;72.40
78779;DHT22;68121;52.404;5.318;2023-07-29T05:20:05;18.00;72.40
78779;DHT22;68121;52.404;5.318;2023-07-29T05:22:31;18.00;72.30
78779;DHT22;68121;52.404;5.318;2023-07-29T05:24:57;18.00;72.30
78779;DHT22;68121;52.404;5.318;2023-07-29T05:27:23;18.10;72.30
78779;DHT22;68121;52.404;5.318;2023-07-29T05:29:49;18.10;72.30
78779;DHT22;68121;52.404;5.318;2023-07-29T05:32:15;18.10;72.30
78779;DHT22;68121;52.404;5.318;2023-07-29T05:34:41;18.20;72.20
78779;DHT22;68121;52.404;5.318;2023-07-29T05:37:08;18.20;72.20
78779;DHT22;68121;52.404;5.318;2023-07-29T05:39:34;18.20;72.20
78779;DHT22;68121;52.404;5.318;2023-07-29T05:42:00;18.20;72.20
78779;DHT22;68121;52.404;5.318;2023-07-29T05:44:28;18.20;72.10
78779;DHT22;68121;52.404;5.318;2023-07-29T05:46:56;18.20;72.10
78779;DHT22;68121;52.404;5.318;2023-07-29T05:49:23;18.30;72.10
78779;DHT22;68121;52.404;5.318;2023-07-29T05:51:49;18.30;72.10
78779;DHT22;68121;52.404;5.318;2023-07-29T05:54:18;18.30;72.10
78779;DHT22;68121;52.404;5.318;2023-07-29T05:56:44;18.30;72.10
78779;DHT22;68121;52.404;5.318;2023-07-29T05:59:10;18.30;72.10
78779;DHT22;68121;52.404;5.318;2023-07-29T06:01:36;18.30;72.10
78779;DHT22;68121;52.404;5.318;2023-07-29T06:04:02;18.30;72.10
78779;DHT22;68121;52.404;5.318;2023-07-29T06:06:28;18.30;72.10
78779;DHT22;68121;52.404;5.318;2023-07-29T06:08:54;18.30;72.10
78779;DHT22;68121;52.404;5.318;2023-07-29T06:11:20;18.30;72.10
78779;DHT22;68121;52.404;5.318;2023-07-29T06:13:47;18.30;72.20
78779;DHT22;68121;52.404;5.318;2023-07-29T06:16:13;18.40;72.20
78779;DHT22;68121;52.404;5.318;2023-07-29T06:18:39;18.40;72.20
78779;DHT22;68121;52.404;5.318;2023-07-29T06:21:06;18.40;72.20
78779;DHT22;68121;52.404;5.318;2023-07-29T06:23:34;18.50;72.20
78779;DHT22;68121;52.404;5.318;2023-07-29T06:26:00;18.60;72.10
78779;DHT22;68121;52.404;5.318;2023-07-29T06:28:26;18.70;72.10
78779;DHT22;68121;52.404;5.318;2023-07-29T06:30:52;18.70;72.00
78779;DHT22;68121;52.404;5.318;2023-07-29T06:33:18;18.80;71.90
78779;DHT22;68121;52.404;5.318;2023-07-29T06:35:45;18.80;71.90
78779;DHT22;68121;52.404;5.318;2023-07-29T06:38:11;18.90;71.80
78779;DHT22;68121;52.404;5.318;2023-07-29T06:40:37;18.90;71.80
78779;DHT22;68121;52.404;5.318;2023-07-29T06:43:03;18.90;71.80
78779;DHT22;68121;52.404;5.318;2023-07-29T06:45:29;19.00;71.90
78779;DHT22;68121;52.404;5.318;2023-07-29T06:47:55;19.00;71.80
78779;DHT22;68121;52.404;5.318;2023-07-29T06:50:21;19.00;71.80
78779;DHT22;68121;52.404;5.318;2023-07-29T06:52:47;19.00;71.80
78779;DHT22;68121;52.404;5.318;2023-07-29T06:55:13;19.00;71.70
78779;DHT22;68121;52.404;5.318;2023-07-29T06:57:39;19.10;71.70
78779;DHT22;68121;52.404;5.318;2023-07-29T07:00:06;19.10;71.70
78779;DHT22;68121;52.404;5.318;2023-07-29T07:02:32;19.10;71.70
78779;DHT22;68121;52.404;5.318;2023-07-29T07:04:58;19.10;71.60
78779;DHT22;68121;52.404;5.318;2023-07-29T07:07:24;19.20;71.60
78779;DHT22;68121;52.404;5.318;2023-07-29T07:09:50;19.20;71.60
78779;DHT22;68121;52.404;5.318;2023-07-29T07:12:16;19.20;71.60
78779;DHT22;68121;52.404;5.318;2023-07-29T07:14:42;19.20;71.50
78779;DHT22;68121;52.404;5.318;2023-07-29T07:17:08;19.20;71.60
78779;DHT22;68121;52.404;5.318;2023-07-29T07:19:34;19.20;71.60
78779;DHT22;68121;52.404;5.318;2023-07-29T07:22:00;19.20;71.60
78779;DHT22;68121;52.404;5.318;2023-07-29T07:24:26;19.20;71.60
78779;DHT22;68121;52.404;5.318;2023-07-29T07:26:52;19.20;71.70
78779;DHT22;68121;52.404;5.318;2023-07-29T07:29:18;19.20;71.70
78779;DHT22;68121;52.404;5.318;2023-07-29T07:31:53;19.30;71.60
78779;DHT22;68121;52.404;5.318;2023-07-29T07:34:20;19.30;71.60
78779;DHT22;68121;52.404;5.318;2023-07-29T07:36:46;19.40;71.50
78779;DHT22;68121;52.404;5.318;2023-07-29T07:39:13;19.50;71.40
78779;DHT22;68121;52.404;5.318;2023-07-29T07:41:40;19.50;71.40
78779;DHT22;68121;52.404;5.318;2023-07-29T07:44:07;19.60;71.20
78779;DHT22;68121;52.404;5.318;2023-07-29T07:46:33;19.70;71.20
78779;DHT22;68121;52.404;5.318;2023-07-29T07:48:59;19.70;71.20
78779;DHT22;68121;52.404;5.318;2023-07-29T07:51:25;19.90;71.10
78779;DHT22;68121;52.404;5.318;2023-07-29T07:53:51;20.00;70.90
78779;DHT22;68121;52.404;5.318;2023-07-29T07:56:17;20.00;70.80
78779;DHT22;68121;52.404;5.318;2023-07-29T07:58:43;20.00;70.70
78779;DHT22;68121;52.404;5.318;2023-07-29T08:01:10;20.10;70.60
78779;DHT22;68121;52.404;5.318;2023-07-29T08:03:37;20.20;70.60
78779;DHT22;68121;52.404;5.318;2023-07-29T08:06:04;20.30;70.50
78779;DHT22;68121;52.404;5.318;2023-07-29T08:08:30;20.30;70.30
78779;DHT22;68121;52.404;5.318;2023-07-29T08:10:57;20.40;70.20
78779;DHT22;68121;52.404;5.318;2023-07-29T08:13:24;20.50;70.20
78779;DHT22;68121;52.404;5.318;2023-07-29T08:15:51;20.50;70.00
78779;DHT22;68121;52.404;5.318;2023-07-29T08:18:18;20.40;70.10
78779;DHT22;68121;52.404;5.318;2023-07-29T08:20:54;20.40;70.10
78779;DHT22;68121;52.404;5.318;2023-07-29T08:23:21;20.40;70.00
78779;DHT22;68121;52.404;5.318;2023-07-29T08:25:55;20.40;70.10
78779;DHT22;68121;52.404;5.318;2023-07-29T08:28:32;20.30;70.10
78779;DHT22;68121;52.404;5.318;2023-07-29T08:30:58;20.30;70.20
78779;DHT22;68121;52.404;5.318;2023-07-29T08:33:25;20.30;70.10
78779;DHT22;68121;52.404;5.318;2023-07-29T08:35:51;20.20;70.20
78779;DHT22;68121;52.404;5.318;2023-07-29T08:38:17;20.10;70.20
78779;DHT22;68121;52.404;5.318;2023-07-29T08:40:59;20.10;70.20
78779;DHT22;68121;52.404;5.318;2023-07-29T08:43:30;20.10;70.20
78779;DHT22;68121;52.404;5.318;2023-07-29T08:45:59;20.20;70.10
78779;DHT22;68121;52.404;5.318;2023-07-29T08:48:44;20.30;69.90
78779;DHT22;68121;52.404;5.318;2023-07-29T08:51:11;20.30;69.70
78779;DHT22;68121;52.404;5.318;2023-07-29T08:53:39;20.30;69.70
78779;DHT22;68121;52.404;5.318;2023-07-29T08:56:06;20.30;69.70
78779;DHT22;68121;52.404;5.318;2023-07-29T08:58:33;20.30;69.80
78779;DHT22;68121;52.404;5.318;2023-07-29T09:01:00;20.30;69.80
78779;DHT22;68121;52.404;5.318;2023-07-29T09:03:27;20.20;69.70
78779;DHT22;68121;52.404;5.318;2023-07-29T09:05:53;20.30;69.70
78779;DHT22;68121;52.404;5.318;2023-07-29T09:08:21;20.30;69.60
78779;DHT22;68121;52.404;5.318;2023-07-29T09:10:47;20.50;69.40
78779;DHT22;68121;52.404;5.318;2023-07-29T09:13:13;20.80;68.90
78779;DHT22;68121;52.404;5.318;2023-07-29T09:15:39;20.90;68.50
78779;DHT22;68121;52.404;5.318;2023-07-29T09:18:12;20.90;68.30
78779;DHT22;68121;52.404;5.318;2023-07-29T09:20:39;20.90;68.30
78779;DHT22;68121;52.404;5.318;2023-07-29T09:23:08;20.90;68.20
78779;DHT22;68121;52.404;5.318;2023-07-29T09:25:38;20.90;68.20
78779;DHT22;68121;52.404;5.318;2023-07-29T09:28:12;20.90;68.10
78779;DHT22;68121;52.404;5.318;2023-07-29T09:30:39;20.90;67.90
78779;DHT22;68121;52.404;5.318;2023-07-29T09:33:06;20.90;67.80
78779;DHT22;68121;52.404;5.318;2023-07-29T09:35:36;20.80;67.80
78779;DHT22;68121;52.404;5.318;2023-07-29T09:38:04;20.80;67.60
78779;DHT22;68121;52.404;5.318;2023-07-29T09:40:40;20.80;67.60
78779;DHT22;68121;52.404;5.318;2023-07-29T09:43:09;20.80;67.20
78779;DHT22;68121;52.404;5.318;2023-07-29T09:45:36;20.80;67.30
78779;DHT22;68121;52.404;5.318;2023-07-29T09:48:03;20.70;67.40
78779;DHT22;68121;52.404;5.318;2023-07-29T09:50:31;20.70;67.30
78779;DHT22;68121;52.404;5.318;2023-07-29T09:52:57;20.70;67.40
78779;DHT22;68121;52.404;5.318;2023-07-29T09:55:26;20.70;67.40
78779;DHT22;68121;52.404;5.318;2023-07-29T09:57:57;20.80;67.30
78779;DHT22;68121;52.404;5.318;2023-07-29T10:00:24;20.90;67.20
78779;DHT22;68121;52.404;5.318;2023-07-29T10:02:51;21.00;67.10
78779;DHT22;68121;52.404;5.318;2023-07-29T10:05:18;21.10;67.00
78779;DHT22;68121;52.404;5.318;2023-07-29T10:07:44;21.30;66.90
78779;DHT22;68121;52.404;5.318;2023-07-29T10:10:12;21.40;66.70
78779;DHT22;68121;52.404;5.318;2023-07-29T10:12:39;21.60;66.50
78779;DHT22;68121;52.404;5.318;2023-07-29T10:15:09;21.80;66.50
78779;DHT22;68121;52.404;5.318;2023-07-29T10:17:36;21.90;66.20
78779;DHT22;68121;52.404;5.318;2023-07-29T10:20:08;22.00;66.10
78779;DHT22;68121;52.404;5.318;2023-07-29T10:22:40;22.00;65.80
78779;DHT22;68121;52.404;5.318;2023-07-29T10:25:25;22.10;65.70
78779;DHT22;68121;52.404;5.318;2023-07-29T10:28:06;22.30;65.40
78779;DHT22;68121;52.404;5.318;2023-07-29T10:30:32;22.40;65.30
78779;DHT22;68121;52.404;5.318;2023-07-29T10:33:02;22.50;65.20
78779;DHT22;68121;52.404;5.318;2023-07-29T10:35:28;22.70;64.90
78779;DHT22;68121;52.404;5.318;2023-07-29T10:37:55;22.80;64.60
78779;DHT22;68121;52.404;5.318;2023-07-29T10:40:21;22.80;64.40
78779;DHT22;68121;52.404;5.318;2023-07-29T10:43:09;22.90;64.20
78779;DHT22;68121;52.404;5.318;2023-07-29T10:45:37;22.90;63.60
78779;DHT22;68121;52.404;5.318;2023-07-29T10:48:39;22.70;63.70
78779;DHT22;68121;52.404;5.318;2023-07-29T10:51:24;22.60;63.70
78779;DHT22;68121;52.404;5.318;2023-07-29T10:54:02;22.50;63.50
78779;DHT22;68121;52.404;5.318;2023-07-29T10:56:34;22.50;63.70
78779;DHT22;68121;52.404;5.318;2023-07-29T11:02:00;22.60;63.40
78779;DHT22;68121;52.404;5.318;2023-07-29T11:04:27;22.60;63.20
78779;DHT22;68121;52.404;5.318;2023-07-29T11:12:46;22.40;63.10
78779;DHT22;68121;52.404;5.318;2023-07-29T11:20:12;22.20;63.60
78779;DHT22;68121;52.404;5.318;2023-07-29T11:22:39;22.10;63.70
78779;DHT22;68121;52.404;5.318;2023-07-29T11:25:09;22.10;63.80
78779;DHT22;68121;52.404;5.318;2023-07-29T11:27:36;22.00;64.10
78779;DHT22;68121;52.404;5.318;2023-07-29T11:30:10;22.00;64.40
78779;DHT22;68121;52.404;5.318;2023-07-29T11:32:37;21.90;64.80
78779;DHT22;68121;52.404;5.318;2023-07-29T11:35:04;21.70;65.10
78779;DHT22;68121;52.404;5.318;2023-07-29T11:37:30;21.50;65.50
78779;DHT22;68121;52.404;5.318;2023-07-29T11:39:56;21.30;66.10
78779;DHT22;68121;52.404;5.318;2023-07-29T11:42:24;21.10;66.60
78779;DHT22;68121;52.404;5.318;2023-07-29T11:44:50;21.10;67.00
78779;DHT22;68121;52.404;5.318;2023-07-29T11:47:16;21.10;67.30
78779;DHT22;68121;52.404;5.318;2023-07-29T11:49:42;21.10;67.40
78779;DHT22;68121;52.404;5.318;2023-07-29T11:52:09;21.30;67.50
78779;DHT22;68121;52.404;5.318;2023-07-29T11:54:39;21.40;67.30
78779;DHT22;68121;52.404;5.318;2023-07-29T11:57:09;21.50;67.20
78779;DHT22;68121;52.404;5.318;2023-07-29T11:59:36;21.50;67.00
78779;DHT22;68121;52.404;5.318;2023-07-29T12:02:11;21.70;66.70
78779;DHT22;68121;52.404;5.318;2023-07-29T12:04:40;21.60;66.60
78779;DHT22;68121;52.404;5.318;2023-07-29T12:07:07;21.60;66.50
78779;DHT22;68121;52.404;5.318;2023-07-29T12:09:35;21.60;66.50
78779;DHT22;68121;52.404;5.318;2023-07-29T12:12:05;21.60;66.50
78779;DHT22;68121;52.404;5.318;2023-07-29T12:14:32;21.50;66.50
78779;DHT22;68121;52.404;5.318;2023-07-29T12:17:05;21.50;66.50
78779;DHT22;68121;52.404;5.318;2023-07-29T12:19:39;21.50;66.60
78779;DHT22;68121;52.404;5.318;2023-07-29T12:22:07;21.50;66.50
78779;DHT22;68121;52.404;5.318;2023-07-29T12:24:39;21.60;66.60
78779;DHT22;68121;52.404;5.318;2023-07-29T12:27:10;21.60;66.60
78779;DHT22;68121;52.404;5.318;2023-07-29T12:29:41;21.50;66.90
78779;DHT22;68121;52.404;5.318;2023-07-29T12:32:07;21.50;67.10
78779;DHT22;68121;52.404;5.318;2023-07-29T12:34:35;21.40;67.30
78779;DHT22;68121;52.404;5.318;2023-07-29T12:37:03;21.30;67.50
78779;DHT22;68121;52.404;5.318;2023-07-29T12:39:32;21.30;67.80
78779;DHT22;68121;52.404;5.318;2023-07-29T12:42:00;21.20;68.00
78779;DHT22;68121;52.404;5.318;2023-07-29T12:44:30;21.10;68.20
78779;DHT22;68121;52.404;5.318;2023-07-29T12:46:57;21.10;68.20
78779;DHT22;68121;52.404;5.318;2023-07-29T12:49:23;21.10;68.30
78779;DHT22;68121;52.404;5.318;2023-07-29T12:51:50;21.30;68.20
78779;DHT22;68121;52.404;5.318;2023-07-29T12:54:16;21.40;68.20
78779;DHT22;68121;52.404;5.318;2023-07-29T12:56:42;21.70;67.90
78779;DHT22;68121;52.404;5.318;2023-07-29T12:59:08;21.90;67.60
78779;DHT22;68121;52.404;5.318;2023-07-29T13:01:34;22.00;67.30
78779;DHT22;68121;52.404;5.318;2023-07-29T13:04:00;22.10;67.10
78779;DHT22;68121;52.404;5.318;2023-07-29T13:06:26;22.20;66.90
78779;DHT22;68121;52.404;5.318;2023-07-29T13:08:52;22.20;66.80
78779;DHT22;68121;52.404;5.318;2023-07-29T13:11:18;22.40;66.70
78779;DHT22;68121;52.404;5.318;2023-07-29T13:13:45;22.60;66.60
78779;DHT22;68121;52.404;5.318;2023-07-29T13:16:12;22.80;66.30
78779;DHT22;68121;52.404;5.318;2023-07-29T13:18:38;23.00;66.10
78779;DHT22;68121;52.404;5.318;2023-07-29T13:21:05;23.20;65.80
78779;DHT22;68121;52.404;5.318;2023-07-29T13:23:31;23.40;65.30
78779;DHT22;68121;52.404;5.318;2023-07-29T13:25:57;23.50;64.80
78779;DHT22;68121;52.404;5.318;2023-07-29T13:28:23;23.50;64.70
78779;DHT22;68121;52.404;5.318;2023-07-29T13:30:50;23.50;64.70
78779;DHT22;68121;52.404;5.318;2023-07-29T13:33:18;23.40;64.60
78779;DHT22;68121;52.404;5.318;2023-07-29T13:35:44;23.30;64.60
78779;DHT22;68121;52.404;5.318;2023-07-29T13:38:10;23.20;64.70
78779;DHT22;68121;52.404;5.318;2023-07-29T13:40:37;23.20;64.80
78779;DHT22;68121;52.404;5.318;2023-07-29T13:43:03;23.30;64.80
78779;DHT22;68121;52.404;5.318;2023-07-29T13:45:29;23.30;64.60
78779;DHT22;68121;52.404;5.318;2023-07-29T13:47:55;23.40;64.40
78779;DHT22;68121;52.404;5.318;2023-07-29T13:50:21;23.40;64.10
78779;DHT22;68121;52.404;5.318;2023-07-29T13:52:47;23.30;64.00
78779;DHT22;68121;52.404;5.318;2023-07-29T13:55:13;23.20;64.00
78779;DHT22;68121;52.404;5.318;2023-07-29T13:57:40;23.10;64.20
78779;DHT22;68121;52.404;5.318;2023-07-29T14:00:07;23.10;64.30
78779;DHT22;68121;52.404;5.318;2023-07-29T14:02:34;23.10;64.30
78779;DHT22;68121;52.404;5.318;2023-07-29T14:05:00;23.20;64.40
78779;DHT22;68121;52.404;5.318;2023-07-29T14:07:26;23.20;64.20
78779;DHT22;68121;52.404;5.318;2023-07-29T14:09:52;23.20;64.10
78779;DHT22;68121;52.404;5.318;2023-07-29T14:12:18;23.30;63.90
78779;DHT22;68121;52.404;5.318;2023-07-29T14:14:44;23.50;63.80
78779;DHT22;68121;52.404;5.318;2023-07-29T14:17:10;23.60;63.30
78779;DHT22;68121;52.404;5.318;2023-07-29T14:19:37;23.50;63.10
78779;DHT22;68121;52.404;5.318;2023-07-29T14:22:03;23.50;63.00
78779;DHT22;68121;52.404;5.318;2023-07-29T14:24:29;23.40;63.00
78779;DHT22;68121;52.404;5.318;2023-07-29T14:26:56;23.50;63.00
78779;DHT22;68121;52.404;5.318;2023-07-29T14:29:22;23.50;62.80
78779;DHT22;68121;52.404;5.318;2023-07-29T14:31:48;23.60;62.60
78779;DHT22;68121;52.404;5.318;2023-07-29T14:34:14;23.60;62.30
78779;DHT22;68121;52.404;5.318;2023-07-29T14:36:40;23.50;62.20
78779;DHT22;68121;52.404;5.318;2023-07-29T14:39:06;23.40;62.20
78779;DHT22;68121;52.404;5.318;2023-07-29T14:41:32;23.40;62.30
78779;DHT22;68121;52.404;5.318;2023-07-29T14:43:58;23.40;62.20
78779;DHT22;68121;52.404;5.318;2023-07-29T14:46:24;23.40;62.20
78779;DHT22;68121;52.404;5.318;2023-07-29T14:48:50;23.40;62.10
78779;DHT22;68121;52.404;5.318;2023-07-29T14:51:16;23.40;61.80
78779;DHT22;68121;52.404;5.318;2023-07-29T14:53:43;23.30;61.60
78779;DHT22;68121;52.404;5.318;2023-07-29T14:56:09;23.20;61.40
78779;DHT22;68121;52.404;5.318;2023-07-29T14:58:35;23.10;61.20
78779;DHT22;68121;52.404;5.318;2023-07-29T15:01:01;23.10;61.00
78779;DHT22;68121;52.404;5.318;2023-07-29T15:03:27;23.10;60.80
78779;DHT22;68121;52.404;5.318;2023-07-29T15:05:53;23.10;60.70
78779;DHT22;68121;52.404;5.318;2023-07-29T15:08:19;23.20;60.50
78779;DHT22;68121;52.404;5.318;2023-07-29T15:10:49;23.30;60.20
78779;DHT22;68121;52.404;5.318;2023-07-29T15:13:15;23.40;60.00
78779;DHT22;68121;52.404;5.318;2023-07-29T15:15:42;23.40;59.80
78779;DHT22;68121;52.404;5.318;2023-07-29T15:18:08;23.40;59.70
78779;DHT22;68121;52.404;5.318;2023-07-29T15:20:34;23.50;59.60
78779;DHT22;68121;52.404;5.318;2023-07-29T15:23:00;23.40;59.40
78779;DHT22;68121;52.404;5.318;2023-07-29T15:25:26;23.40;59.30
78779;DHT22;68121;52.404;5.318;2023-07-29T15:27:52;23.40;59.20
78779;DHT22;68121;52.404;5.318;2023-07-29T15:30:18;23.50;59.20
78779;DHT22;68121;52.404;5.318;2023-07-29T15:32:45;23.50;59.00
78779;DHT22;68121;52.404;5.318;2023-07-29T15:35:11;23.50;59.00
78779;DHT22;68121;52.404;5.318;2023-07-29T15:37:39;23.50;59.00
78779;DHT22;68121;52.404;5.318;2023-07-29T15:40:06;23.50;58.90
78779;DHT22;68121;52.404;5.318;2023-07-29T15:42:33;23.40;58.70
78779;DHT22;68121;52.404;5.318;2023-07-29T15:44:59;23.40;58.70
78779;DHT22;68121;52.404;5.318;2023-07-29T15:47:25;23.40;58.70
78779;DHT22;68121;52.404;5.318;2023-07-29T15:49:51;23.50;58.80
78779;DHT22;68121;52.404;5.318;2023-07-29T15:52:17;23.60;58.80
78779;DHT22;68121;52.404;5.318;2023-07-29T15:54:44;23.60;58.50
78779;DHT22;68121;52.404;5.318;2023-07-29T15:57:10;23.60;58.20